Time;durP1;ratioP1;P1;durP2;ratioP2;P2;SDS_P1;SDS_P2;PMS_P1;PMS_P2;Temp;Humidity;BMP_temperature;BMP_pressure;BME280_temperature;BME280_humidity;BME280_pressure;Samples;Min_cycle;Max_cycle;Signal;HPM_P1;HPM_P2
2022/11/27 00:01:11;;;;;;;0.00;0.00;;;;;;;4.16;100.00;101616.88;5071207;28;20394;-81
2022/11/27 00:03:37;;;;;;;0.20;0.20;;;;;;;4.13;100.00;101628.19;5070773;28;20634;-81
2022/11/27 00:06:03;;;;;;;0.17;0.17;;;;;;;4.15;100.00;101631.47;5070823;28;20210;-81
2022/11/27 00:08:28;;;;;;;0.00;0.00;;;;;;;4.04;100.00;101628.78;5070945;28;20209;-81
2022/11/27 00:10:54;;;;;;;1.30;1.30;;;;;;;4.20;100.00;101624.53;5053177;28;20289;-80
2022/11/27 00:13:20;;;;;;;0.00;0.00;;;;;;;4.27;100.00;101617.91;5070768;28;20277;-80
2022/11/27 00:15:45;;;;;;;0.60;0.60;;;;;;;4.24;100.00;101615.69;5070802;28;20182;-82
2022/11/27 00:18:11;;;;;;;4.03;3.73;;;;;;;4.18;100.00;101628.28;5070825;28;20170;-81
2022/11/27 00:20:36;;;;;;;0.00;0.00;;;;;;;4.28;100.00;101622.25;5052927;28;20613;-79
2022/11/27 00:23:01;;;;;;;7.33;4.17;;;;;;;4.33;100.00;101622.34;5070395;28;20202;-81
2022/11/27 00:25:27;;;;;;;1.40;1.33;;;;;;;4.33;100.00;101625.06;5070893;28;20714;-81
2022/11/27 00:27:52;;;;;;;11.03;4.63;;;;;;;4.32;100.00;101623.41;5070728;28;20588;-79
2022/11/27 00:30:18;;;;;;;1.87;1.77;;;;;;;4.32;100.00;101619.88;5070476;28;20194;-81
2022/11/27 00:32:43;;;;;;;0.67;0.67;;;;;;;4.28;100.00;101614.16;5070269;28;20178;-80
2022/11/27 00:35:09;;;;;;;3.90;2.53;;;;;;;4.24;100.00;101604.06;5070877;28;20177;-79
2022/11/27 00:37:35;;;;;;;2.17;2.07;;;;;;;4.21;100.00;101601.84;5070424;28;20182;-81
2022/11/27 00:40:00;;;;;;;3.27;2.97;;;;;;;4.19;100.00;101591.25;5070394;28;20230;-81
2022/11/27 00:42:26;;;;;;;5.07;4.57;;;;;;;4.15;100.00;101590.09;5070254;28;20206;-78
2022/11/27 00:44:51;;;;;;;4.50;4.20;;;;;;;4.10;100.00;101588.09;5070374;28;20693;-79
2022/11/27 00:47:16;;;;;;;0.73;0.73;;;;;;;4.09;100.00;101582.94;5070490;28;20586;-81
2022/11/27 00:49:42;;;;;;;2.10;2.00;;;;;;;4.10;100.00;101577.28;5052357;28;20626;-80
2022/11/27 00:52:07;;;;;;;0.00;0.00;;;;;;;4.10;100.00;101573.78;5070379;28;20179;-80
2022/11/27 00:54:33;;;;;;;0.40;0.40;;;;;;;4.07;100.00;101582.38;5070111;28;20542;-80
2022/11/27 00:56:58;;;;;;;1.03;1.03;;;;;;;4.07;100.00;101579.66;5070130;28;20622;-79
2022/11/27 00:59:24;;;;;;;0.00;0.00;;;;;;;4.01;100.00;101570.59;5069725;28;20178;-82
2022/11/27 01:01:49;;;;;;;0.87;0.87;;;;;;;3.97;100.00;101574.03;5052179;28;20263;-82
2022/11/27 01:04:15;;;;;;;7.93;2.97;;;;;;;4.02;100.00;101566.03;5069896;28;20179;-80
2022/11/27 01:06:42;;;;;;;1.63;1.53;;;;;;;3.98;100.00;101567.56;5070344;28;20178;-80
2022/11/27 01:09:10;;;;;;;0.13;0.13;;;;;;;4.00;100.00;101565.44;5070167;28;20216;-81
2022/11/27 01:11:35;;;;;;;0.00;0.00;;;;;;;3.96;100.00;101558.88;5070170;28;20185;-80
2022/11/27 01:14:04;;;;;;;0.17;0.17;;;;;;;3.96;100.00;101572.41;5069997;28;20170;-79
2022/11/27 01:16:31;;;;;;;0.87;0.87;;;;;;;3.99;100.00;101570.03;5070119;28;20206;-80
2022/11/27 01:18:58;;;;;;;3.63;3.20;;;;;;;3.96;100.00;101562.41;5069943;28;20177;-81
2022/11/27 01:21:26;;;;;;;2.17;2.07;;;;;;;3.98;100.00;101551.34;5070035;28;20209;-80
2022/11/27 01:23:52;;;;;;;11.03;1.13;;;;;;;3.98;100.00;101554.06;5069782;28;20688;-79
2022/11/27 01:26:18;;;;;;;6.20;3.10;;;;;;;3.94;100.00;101556.41;5069795;28;20170;-79
2022/11/27 01:28:44;;;;;;;2.13;2.03;;;;;;;3.98;100.00;101562.16;5052042;28;20188;-80
2022/11/27 01:31:15;;;;;;;0.00;0.00;;;;;;;3.96;100.00;101556.19;5069911;28;20191;-81
2022/11/27 01:33:41;;;;;;;0.00;0.00;;;;;;;3.94;100.00;101552.91;5070126;28;20213;-80
2022/11/27 01:36:08;;;;;;;1.30;1.30;;;;;;;3.94;100.00;101547.50;5069821;28;20206;-80
2022/11/27 01:38:34;;;;;;;1.80;1.70;;;;;;;3.88;100.00;101543.84;5070064;28;20175;-81
2022/11/27 01:41:21;;;;;;;0.87;0.87;;;;;;;3.82;100.00;101540.22;5069832;28;20213;-81
2022/11/27 01:44:07;;;;;;;0.20;0.20;;;;;;;3.79;100.00;101542.59;5069615;28;20206;-81
2022/11/27 01:46:42;;;;;;;2.90;2.23;;;;;;;3.77;100.00;101547.44;5048189;28;20198;-79
2022/11/27 01:49:08;;;;;;;3.30;2.10;;;;;;;3.74;100.00;101534.38;5069836;28;20178;-82
2022/11/27 01:51:54;;;;;;;4.60;4.13;;;;;;;3.80;100.00;101552.34;5069867;28;20177;-81
2022/11/27 01:54:23;;;;;;;6.90;4.03;;;;;;;3.82;100.00;101540.22;5052141;28;20191;-81
2022/11/27 01:56:55;;;;;;;3.03;2.77;;;;;;;3.81;100.00;101535.06;5069599;28;20227;-81
2022/11/27 01:59:20;;;;;;;5.40;4.87;;;;;;;3.83;100.00;101543.75;5069384;28;20174;-80
2022/11/27 02:01:46;;;;;;;3.80;3.37;;;;;;;3.86;100.00;101540.56;5051647;28;20244;-81
2022/11/27 02:04:11;;;;;;;22.20;4.13;;;;;;;3.82;100.00;101539.41;5069369;28;20189;-80
2022/11/27 02:06:37;;;;;;;3.37;3.10;;;;;;;3.81;100.00;101543.19;5069569;28;20626;-80
2022/11/27 02:09:02;;;;;;;1.57;1.47;;;;;;;3.83;100.00;101527.53;5069529;28;20179;-81
2022/11/27 02:11:47;;;;;;;5.10;3.70;;;;;;;3.84;100.00;101524.59;5052663;28;20205;-80
2022/11/27 02:14:37;;;;;;;1.53;1.43;;;;;;;3.83;100.00;101524.84;5055040;28;20178;-82
2022/11/27 02:17:39;;;;;;;3.67;2.27;;;;;;;3.83;100.00;101530.25;5073637;28;20206;-80
2022/11/27 02:20:33;;;;;;;1.27;1.27;;;;;;;3.83;100.00;101536.47;5073182;28;20221;-80
2022/11/27 02:23:34;;;;;;;1.27;1.27;;;;;;;3.85;100.00;101533.53;5072563;28;20202;-79
2022/11/27 02:26:24;;;;;;;1.70;1.60;;;;;;;3.85;100.00;101537.03;5072761;28;20236;-82
2022/11/27 02:29:03;;;;;;;4.03;3.73;;;;;;;3.87;100.00;101531.41;5072827;28;20175;-80
2022/11/27 02:32:07;;;;;;;1.63;1.53;;;;;;;3.86;100.00;101524.34;5072882;28;20186;-79
2022/11/27 02:34:44;;;;;;;5.40;2.47;;;;;;;3.83;100.00;101516.72;5072590;28;20182;-81
2022/11/27 02:37:48;;;;;;;0.00;0.00;;;;;;;3.73;100.00;101511.09;5072862;28;20579;-81
2022/11/27 02:40:17;;;;;;;3.63;3.53;;;;;;;3.78;100.00;101509.34;5020372;28;20194;-81
2022/11/27 02:42:54;;;;;;;0.60;0.60;;;;;;;3.84;100.00;101504.84;5072362;28;20202;-79
2022/11/27 02:45:31;;;;;;;3.10;2.90;;;;;;;3.83;100.00;101506.72;5072727;28;20171;-80
2022/11/27 02:47:58;;;;;;;0.00;0.00;;;;;;;3.85;100.00;101495.69;5073142;28;20228;-79
2022/11/27 02:50:27;;;;;;;4.97;2.40;;;;;;;3.81;100.00;101487.25;5072609;28;20269;-81
2022/11/27 02:52:58;;;;;;;0.00;0.00;;;;;;;3.70;100.00;101482.69;5072375;28;20206;-81
2022/11/27 02:55:29;;;;;;;1.07;1.07;;;;;;;3.71;100.00;101486.22;5072665;28;20187;-80
2022/11/27 02:57:56;;;;;;;1.17;1.10;;;;;;;3.70;100.00;101477.28;5072898;28;20162;-81
2022/11/27 03:00:22;;;;;;;13.50;2.10;;;;;;;3.72;100.00;101480.56;5072678;28;20625;-80
2022/11/27 03:02:57;;;;;;;2.53;2.23;;;;;;;3.72;100.00;101474.34;5072430;28;20198;-81
2022/11/27 03:05:26;;;;;;;0.17;0.17;;;;;;;3.58;100.00;101477.31;5072650;28;20178;-80
2022/11/27 03:07:51;;;;;;;7.90;1.57;;;;;;;3.44;100.00;101472.41;5054548;28;20536;-81
2022/11/27 03:10:23;;;;;;;1.93;1.63;;;;;;;3.39;100.00;101469.63;5072436;28;20178;-80
2022/11/27 03:12:49;;;;;;;2.17;2.07;;;;;;;3.17;100.00;101472.09;5054201;28;20205;-80
2022/11/27 03:15:15;;;;;;;0.00;0.00;;;;;;;3.09;100.00;101469.78;5072238;28;20174;-81
2022/11/27 03:18:14;;;;;;;0.00;0.00;;;;;;;3.14;100.00;101461.78;5072257;28;20198;-81
2022/11/27 03:20:43;;;;;;;1.23;1.00;;;;;;;3.29;100.00;101462.94;5072096;28;20175;-81
2022/11/27 03:23:08;;;;;;;2.23;2.03;;;;;;;3.41;100.00;101459.41;5071617;28;20221;-81
2022/11/27 03:25:34;;;;;;;5.10;1.50;;;;;;;3.44;100.00;101457.03;5071862;28;20179;-80
2022/11/27 03:28:06;;;;;;;2.47;2.27;;;;;;;3.40;100.00;101452.34;5071695;28;20175;-81
2022/11/27 03:30:32;;;;;;;0.03;0.03;;;;;;;3.50;100.00;101447.16;5053735;28;20261;-80
2022/11/27 03:32:58;;;;;;;4.70;3.47;;;;;;;3.49;100.00;101450.94;5071616;28;20649;-81
2022/11/27 03:35:25;;;;;;;1.53;1.43;;;;;;;3.68;100.00;101457.78;5071664;28;20243;-82
2022/11/27 03:37:51;;;;;;;0.33;0.33;;;;;;;3.70;100.00;101458.38;5071629;28;20564;-81
2022/11/27 03:40:17;;;;;;;2.13;2.00;;;;;;;3.72;100.00;101461.66;5071639;28;20170;-82
2022/11/27 03:43:02;;;;;;;0.00;0.00;;;;;;;3.75;100.00;101460.34;5071167;28;20543;-81
2022/11/27 03:45:55;;;;;;;1.57;1.50;;;;;;;3.59;100.00;101454.63;5071674;28;20186;-82
2022/11/27 03:48:36;;;;;;;0.10;0.10;;;;;;;3.50;100.00;101460.69;5071645;28;20215;-81
2022/11/27 03:51:15;;;;;;;8.00;1.73;;;;;;;3.43;100.00;101460.78;5073858;28;20251;-80
2022/11/27 03:53:51;;;;;;;0.53;0.53;;;;;;;3.45;100.00;101452.44;5072629;28;20236;-82
2022/11/27 03:56:34;;;;;;;1.43;1.33;;;;;;;3.41;100.00;101456.69;5071585;28;20227;-82
2022/11/27 03:59:16;;;;;;;0.87;0.87;;;;;;;3.48;100.00;101465.50;5071354;28;20178;-82
2022/11/27 04:01:42;;;;;;;1.10;1.07;;;;;;;3.53;100.00;101461.00;5053328;28;20205;-82
2022/11/27 04:04:07;;;;;;;1.37;1.37;;;;;;;3.56;100.00;101474.03;5071640;28;20178;-82
2022/11/27 04:06:33;;;;;;;3.07;2.87;;;;;;;3.64;100.00;101472.03;5071185;28;20723;-81
2022/11/27 04:08:58;;;;;;;1.40;1.17;;;;;;;3.65;100.00;101476.38;5071694;28;20186;-81
2022/11/27 04:11:23;;;;;;;0.63;0.63;;;;;;;3.64;100.00;101477.44;5071137;28;20257;-82
2022/11/27 04:13:51;;;;;;;3.70;2.10;;;;;;;3.58;100.00;101469.22;5071159;28;20236;-83
2022/11/27 04:16:16;;;;;;;0.40;0.40;;;;;;;3.42;100.00;101464.56;5071072;28;20186;-82
2022/11/27 04:18:42;;;;;;;0.00;0.00;;;;;;;3.39;100.00;101467.75;5070983;28;20181;-82
2022/11/27 04:21:07;;;;;;;2.43;1.50;;;;;;;3.36;100.00;101465.53;5070915;28;20190;-82
2022/11/27 04:23:32;;;;;;;0.00;0.00;;;;;;;3.35;100.00;101468.47;5070771;28;20210;-81
2022/11/27 04:25:58;;;;;;;0.00;0.00;;;;;;;3.32;100.00;101450.84;5070899;28;20687;-82
2022/11/27 04:28:23;;;;;;;0.87;0.87;;;;;;;3.35;100.00;101454.97;5070851;28;20174;-82
2022/11/27 04:30:53;;;;;;;0.20;0.20;;;;;;;3.36;100.00;101451.19;5070808;28;20296;-81
2022/11/27 04:33:19;;;;;;;0.00;0.00;;;;;;;3.33;100.00;101439.00;5070466;28;20178;-82
2022/11/27 04:35:44;;;;;;;0.00;0.00;;;;;;;3.32;100.00;101439.22;5070459;28;20198;-83
2022/11/27 04:38:10;;;;;;;0.50;0.50;;;;;;;3.38;100.00;101439.09;5070653;28;20231;-81
2022/11/27 04:40:35;;;;;;;3.37;3.00;;;;;;;3.31;100.00;101446.50;5070634;28;20175;-81
2022/11/27 04:43:00;;;;;;;2.63;2.43;;;;;;;3.36;100.00;101441.22;5070352;28;20206;-82
2022/11/27 04:45:26;;;;;;;5.77;1.67;;;;;;;3.46;100.00;101438.69;5070753;28;20171;-79
2022/11/27 04:47:51;;;;;;;0.63;0.63;;;;;;;3.57;100.00;101434.31;5070673;28;20159;-82
2022/11/27 04:50:17;;;;;;;0.00;0.00;;;;;;;3.55;100.00;101426.47;5070624;28;20175;-82
2022/11/27 04:52:42;;;;;;;0.30;0.30;;;;;;;3.58;100.00;101420.56;5070342;28;20194;-82
2022/11/27 04:55:08;;;;;;;0.33;0.33;;;;;;;3.63;100.00;101410.94;5052552;28;20265;-82
2022/11/27 04:57:34;;;;;;;0.87;0.87;;;;;;;3.63;100.00;101419.06;5070788;28;20178;-81
2022/11/27 04:59:59;;;;;;;1.77;1.43;;;;;;;3.75;100.00;101417.91;5071994;28;20162;-82
2022/11/27 05:02:24;;;;;;;0.00;0.00;;;;;;;3.63;100.00;101411.75;5072628;28;20198;-82
2022/11/27 05:04:50;;;;;;;0.00;0.00;;;;;;;3.55;100.00;101417.53;5072401;28;20177;-83
2022/11/27 05:07:15;;;;;;;0.00;0.00;;;;;;;3.46;100.00;101405.47;5078870;28;20411;-80
2022/11/27 05:09:40;;;;;;;0.00;0.00;;;;;;;3.48;100.00;101392.56;5077855;28;20231;-83
2022/11/27 05:12:06;;;;;;;1.17;0.90;;;;;;;3.69;100.00;101399.16;5071231;28;20261;-81
2022/11/27 05:14:31;;;;;;;1.90;1.80;;;;;;;3.72;100.00;101404.88;5070935;28;20174;-82
2022/11/27 05:16:57;;;;;;;0.10;0.10;;;;;;;3.76;100.00;101405.22;5052716;28;20182;-82
2022/11/27 05:19:25;;;;;;;0.87;0.87;;;;;;;3.83;100.00;101404.03;5070629;28;20178;-82
2022/11/27 05:21:51;;;;;;;0.03;0.03;;;;;;;3.77;100.00;101406.88;5070397;28;20206;-82
2022/11/27 05:24:19;;;;;;;0.47;0.47;;;;;;;3.75;100.00;101401.69;5070417;28;20254;-82
2022/11/27 05:26:45;;;;;;;0.00;0.00;;;;;;;3.74;100.00;101397.34;5070678;28;20293;-83
2022/11/27 05:29:13;;;;;;;0.00;0.00;;;;;;;3.80;100.00;101398.28;5070807;28;20279;-81
2022/11/27 05:31:39;;;;;;;0.30;0.30;;;;;;;3.85;100.00;101388.38;5090569;22;20566;-77
2022/11/27 05:34:06;;;;;;;1.83;1.67;;;;;;;3.98;100.00;101381.84;5065491;28;20186;-76
2022/11/27 05:36:32;;;;;;;0.00;0.00;;;;;;;3.93;100.00;101376.34;5070448;28;20175;-76
2022/11/27 05:38:59;;;;;;;1.00;1.00;;;;;;;3.84;100.00;101372.41;5070202;28;20217;-76
2022/11/27 05:41:24;;;;;;;0.00;0.00;;;;;;;3.83;100.00;101360.78;5070264;28;20644;-76
2022/11/27 05:43:50;;;;;;;0.00;0.00;;;;;;;3.89;100.00;101361.66;5069983;28;20185;-76
2022/11/27 05:46:18;;;;;;;0.00;0.00;;;;;;;3.86;100.00;101356.75;5071094;28;20179;-76
2022/11/27 05:48:43;;;;;;;0.10;0.10;;;;;;;3.72;100.00;101367.06;5073869;28;20185;-76
2022/11/27 05:51:09;;;;;;;0.10;0.10;;;;;;;3.75;100.00;101349.53;5072194;28;20175;-75
2022/11/27 05:53:34;;;;;;;2.80;2.60;;;;;;;4.02;100.00;101347.03;5073416;28;20198;-76
2022/11/27 05:56:05;;;;;;;0.60;0.60;;;;;;;4.00;100.00;101346.44;5072537;28;20174;-76
2022/11/27 05:58:30;;;;;;;4.40;4.13;;;;;;;3.96;100.00;101337.19;5073672;28;20175;-75
2022/11/27 06:00:56;;;;;;;0.67;0.67;;;;;;;3.89;100.00;101338.16;5073621;28;20193;-76
2022/11/27 06:03:21;;;;;;;0.10;0.10;;;;;;;3.97;100.00;101336.13;5073536;28;20220;-76
2022/11/27 06:05:46;;;;;;;0.57;0.57;;;;;;;3.96;100.00;101343.44;5073528;28;20170;-76
2022/11/27 06:08:12;;;;;;;0.00;0.00;;;;;;;3.95;100.00;101332.84;5073575;28;20602;-76
2022/11/27 06:10:38;;;;;;;4.33;2.50;;;;;;;4.12;100.00;101341.78;5073589;28;20202;-76
2022/11/27 06:13:04;;;;;;;0.40;0.40;;;;;;;4.16;100.00;101326.69;5073285;28;20171;-76
2022/11/27 06:15:29;;;;;;;0.47;0.47;;;;;;;4.06;100.00;101326.56;5071051;28;20178;-76
2022/11/27 06:17:55;;;;;;;0.00;0.00;;;;;;;4.14;100.00;101321.53;5073297;28;20174;-76
2022/11/27 06:20:20;;;;;;;0.00;0.00;;;;;;;4.14;100.00;101323.44;5073531;28;20194;-77
2022/11/27 06:22:46;;;;;;;0.00;0.00;;;;;;;3.95;100.00;101311.22;5072794;28;20492;-76
2022/11/27 06:25:11;;;;;;;0.00;0.00;;;;;;;3.85;100.00;101312.69;5073170;28;20224;-76
2022/11/27 06:27:37;;;;;;;0.00;0.00;;;;;;;3.84;100.00;101327.28;5072999;28;20456;-77
2022/11/27 06:30:03;;;;;;;0.20;0.20;;;;;;;3.75;100.00;101322.50;5072981;28;20174;-76
2022/11/27 06:32:29;;;;;;;0.20;0.20;;;;;;;3.74;100.00;101315.47;5072661;28;20198;-77
2022/11/27 06:34:55;;;;;;;0.00;0.00;;;;;;;3.73;100.00;101325.47;5072697;28;20175;-77
2022/11/27 06:37:20;;;;;;;0.43;0.43;;;;;;;3.35;100.00;101331.53;5072802;28;20519;-76
2022/11/27 06:39:47;;;;;;;0.00;0.00;;;;;;;3.49;100.00;101335.59;5071369;28;20656;-75
2022/11/27 06:42:13;;;;;;;0.00;0.00;;;;;;;3.55;100.00;101333.78;5072725;28;20669;-76
2022/11/27 06:44:38;;;;;;;0.97;0.97;;;;;;;3.21;100.00;101328.31;5072365;28;20179;-76
2022/11/27 06:47:03;;;;;;;0.00;0.00;;;;;;;3.53;100.00;101336.75;5071422;28;20715;-76
2022/11/27 06:49:29;;;;;;;0.00;0.00;;;;;;;3.55;100.00;101328.38;5072562;28;20210;-77
2022/11/27 06:51:54;;;;;;;0.00;0.00;;;;;;;3.55;100.00;101326.50;5072556;28;20204;-76
2022/11/27 06:54:19;;;;;;;2.50;2.30;;;;;;;3.23;100.00;101319.97;5072451;28;20178;-78
2022/11/27 06:56:47;;;;;;;0.00;0.00;;;;;;;3.24;100.00;101316.19;5071857;28;20369;-76
2022/11/27 06:59:16;;;;;;;0.00;0.00;;;;;;;3.23;100.00;101320.78;5072994;28;20181;-77
2022/11/27 07:01:42;;;;;;;0.00;0.00;;;;;;;3.38;100.00;101319.44;5072379;28;20616;-76
2022/11/27 07:04:11;;;;;;;0.90;0.90;;;;;;;3.20;100.00;101331.25;5072331;28;20265;-78
2022/11/27 07:06:37;;;;;;;0.10;0.10;;;;;;;3.07;100.00;101326.13;5072530;28;20185;-79
2022/11/27 07:09:03;;;;;;;0.00;0.00;;;;;;;3.14;100.00;101333.00;5072526;28;20178;-79
2022/11/27 07:11:30;;;;;;;0.00;0.00;;;;;;;3.27;100.00;101337.31;5071502;28;20175;-79
2022/11/27 07:13:58;;;;;;;0.00;0.00;;;;;;;3.21;100.00;101325.63;5070597;28;20768;-77
2022/11/27 07:16:24;;;;;;;0.00;0.00;;;;;;;3.20;100.00;101328.56;5065905;28;20218;-79
2022/11/27 07:18:52;;;;;;;0.00;0.00;;;;;;;3.03;100.00;101327.66;5052294;28;20206;-79
2022/11/27 07:21:18;;;;;;;1.90;1.80;;;;;;;3.14;100.00;101318.69;5050971;28;20175;-79
2022/11/27 07:23:44;;;;;;;0.00;0.00;;;;;;;3.26;100.00;101316.78;5051722;28;20186;-79
2022/11/27 07:26:10;;;;;;;0.00;0.00;;;;;;;3.38;100.00;101331.06;5049985;28;20248;-79
2022/11/27 07:28:36;;;;;;;0.17;0.17;;;;;;;3.48;100.00;101327.72;5050005;28;20187;-79
2022/11/27 07:31:01;;;;;;;0.00;0.00;;;;;;;3.43;100.00;101317.63;5050307;28;20194;-78
2022/11/27 07:33:27;;;;;;;2.07;1.30;;;;;;;3.53;100.00;101312.44;5052608;28;20175;-79
2022/11/27 07:36:20;;;;;;;0.00;0.00;;;;;;;3.50;100.00;101314.81;5052272;28;20179;-79
2022/11/27 07:38:46;;;;;;;2.97;2.67;;;;;;;3.73;100.00;101313.84;5050680;28;20431;-79
2022/11/27 07:41:12;;;;;;;2.10;1.90;;;;;;;3.76;100.00;101311.47;5052061;28;20199;-78
2022/11/27 07:43:40;;;;;;;0.20;0.20;;;;;;;3.77;100.00;101313.13;5052100;28;20210;-78
2022/11/27 07:46:11;;;;;;;4.37;1.23;;;;;;;3.74;100.00;101304.66;5052184;28;20168;-78
2022/11/27 07:48:37;;;;;;;0.00;0.00;;;;;;;3.76;100.00;101302.53;5052499;28;20160;-78
2022/11/27 07:51:07;;;;;;;0.00;0.00;;;;;;;3.79;100.00;101304.75;5052412;28;20183;-78
2022/11/27 07:53:35;;;;;;;0.67;0.67;;;;;;;3.82;100.00;101296.16;5051823;28;20229;-79
2022/11/27 07:56:00;;;;;;;0.87;0.87;;;;;;;3.80;100.00;101295.59;5051947;28;20199;-78
2022/11/27 07:58:26;;;;;;;0.00;0.00;;;;;;;3.82;100.00;101290.75;5051918;28;20206;-78
2022/11/27 08:00:51;;;;;;;2.57;1.47;;;;;;;3.86;100.00;101291.88;5052578;28;20200;-78
2022/11/27 08:03:16;;;;;;;0.00;0.00;;;;;;;3.85;100.00;101279.44;5051923;28;20195;-79
2022/11/27 08:05:42;;;;;;;4.07;3.67;;;;;;;3.89;100.00;101292.22;5051237;28;20171;-78
2022/11/27 08:08:07;;;;;;;0.27;0.27;;;;;;;3.91;100.00;101286.59;5051063;28;20171;-79
2022/11/27 08:10:37;;;;;;;0.23;0.23;;;;;;;3.93;100.00;101279.03;5050707;28;20179;-78
2022/11/27 08:13:03;;;;;;;1.03;1.03;;;;;;;3.95;100.00;101279.63;5049540;28;20233;-79
2022/11/27 08:15:29;;;;;;;0.17;0.17;;;;;;;3.95;100.00;101285.03;5050994;28;20229;-79
2022/11/27 08:17:54;;;;;;;3.13;2.83;;;;;;;4.05;100.00;101287.03;5053610;28;20641;-79
2022/11/27 08:20:19;;;;;;;2.27;2.17;;;;;;;4.07;100.00;101288.47;5061389;28;20176;-78
2022/11/27 08:22:45;;;;;;;0.77;0.77;;;;;;;4.14;100.00;101296.38;5053919;28;20234;-78
2022/11/27 08:25:11;;;;;;;0.00;0.00;;;;;;;4.14;100.00;101299.09;5051261;28;20657;-79
2022/11/27 08:27:36;;;;;;;0.23;0.23;;;;;;;4.24;100.00;101295.72;5051160;28;20255;-77
2022/11/27 08:30:04;;;;;;;0.33;0.33;;;;;;;4.30;100.00;101297.41;5051424;28;20274;-77
2022/11/27 08:32:29;;;;;;;2.00;1.90;;;;;;;4.35;100.00;101300.22;5051146;28;20179;-76
2022/11/27 08:34:54;;;;;;;0.53;0.53;;;;;;;4.41;100.00;101299.22;5051241;28;20638;-75
2022/11/27 08:37:20;;;;;;;2.03;0.47;;;;;;;4.47;100.00;101299.03;5051251;28;20163;-76
2022/11/27 08:39:46;;;;;;;11.40;2.40;;;;;;;4.54;100.00;101298.84;5051092;28;20175;-76
2022/11/27 08:42:11;;;;;;;0.00;0.00;;;;;;;4.63;100.00;101299.22;5050983;28;20195;-76
2022/11/27 08:44:37;;;;;;;0.00;0.00;;;;;;;4.60;100.00;101295.13;5060587;28;20181;-76
2022/11/27 08:47:02;;;;;;;0.93;0.93;;;;;;;4.70;100.00;101292.56;5074431;28;20847;-78
2022/11/27 08:49:27;;;;;;;2.93;2.53;;;;;;;4.83;100.00;101277.03;5059612;28;20175;-81
2022/11/27 08:51:53;;;;;;;0.97;0.77;;;;;;;4.84;100.00;101278.66;5083754;28;20630;-81
2022/11/27 08:54:18;;;;;;;0.70;0.70;;;;;;;4.88;100.00;101277.06;5069568;28;20265;-85
2022/11/27 08:56:43;;;;;;;0.00;0.00;;;;;;;4.96;100.00;101273.94;5069324;28;20698;-76
2022/11/27 08:59:09;;;;;;;4.03;0.77;;;;;;;4.96;100.00;101271.22;5069416;28;20557;-76
2022/11/27 09:01:34;;;;;;;0.00;0.00;;;;;;;5.03;100.00;101269.13;5070070;28;20181;-77
2022/11/27 09:04:00;;;;;;;1.77;0.60;;;;;;;5.08;100.00;101258.38;5070243;28;20323;-77
2022/11/27 09:06:29;;;;;;;0.00;0.00;;;;;;;5.15;100.00;101255.44;5070709;28;20179;-76
2022/11/27 09:08:56;;;;;;;2.03;1.87;;;;;;;5.16;100.00;101257.91;5070216;28;20178;-76
2022/11/27 09:11:21;;;;;;;0.47;0.47;;;;;;;5.13;100.00;101253.00;5070352;28;20182;-76
2022/11/27 09:13:47;;;;;;;6.97;1.97;;;;;;;5.24;100.00;101259.34;5070022;28;20175;-76
2022/11/27 09:16:15;;;;;;;4.47;2.80;;;;;;;5.27;100.00;101253.41;5070258;28;20292;-76
2022/11/27 09:18:43;;;;;;;8.07;2.47;;;;;;;5.27;100.00;101246.09;5070296;28;20192;-76
2022/11/27 09:21:10;;;;;;;0.10;0.10;;;;;;;5.34;100.00;101237.75;5072826;28;20174;-77
2022/11/27 09:23:36;;;;;;;1.50;1.40;;;;;;;5.41;100.00;101243.78;5073907;28;20233;-78
2022/11/27 09:26:05;;;;;;;0.00;0.00;;;;;;;5.44;100.00;101240.56;5074649;28;20182;-77
2022/11/27 09:28:34;;;;;;;4.03;3.73;;;;;;;5.59;99.98;101231.75;5074704;28;20190;-76
2022/11/27 09:31:01;;;;;;;0.57;0.57;;;;;;;5.67;99.77;101232.09;5074157;28;20197;-77
2022/11/27 09:33:29;;;;;;;4.27;1.97;;;;;;;5.79;98.80;101222.97;5067320;28;20194;-76
2022/11/27 09:35:54;;;;;;;2.40;2.20;;;;;;;5.87;97.97;101222.47;5053988;28;20179;-76
2022/11/27 09:38:20;;;;;;;0.00;0.00;;;;;;;5.93;97.49;101206.00;5054135;28;20622;-76
2022/11/27 09:40:55;;;;;;;1.77;1.67;;;;;;;6.04;96.36;101203.34;5066031;28;20206;-76
2022/11/27 09:43:30;;;;;;;0.60;0.60;;;;;;;6.00;95.71;101207.66;5073340;28;20246;-77
2022/11/27 09:46:02;;;;;;;0.70;0.70;;;;;;;5.97;95.10;101214.44;5073789;28;20174;-76
2022/11/27 09:48:34;;;;;;;1.10;0.87;;;;;;;5.91;95.18;101215.47;5074016;28;20617;-77
2022/11/27 09:51:05;;;;;;;0.87;0.87;;;;;;;5.94;95.22;101213.06;5073790;28;20216;-76
2022/11/27 09:53:42;;;;;;;2.57;2.07;;;;;;;5.94;94.82;101214.97;5072015;28;20285;-76
2022/11/27 09:56:11;;;;;;;0.87;0.77;;;;;;;5.93;94.58;101218.72;5073886;28;20170;-76
2022/11/27 09:58:39;;;;;;;0.73;0.73;;;;;;;5.95;94.37;101216.59;5072286;28;20202;-76
2022/11/27 10:01:36;;;;;;;1.50;1.40;;;;;;;6.00;94.43;101200.34;5073742;28;20225;-77
2022/11/27 10:04:02;;;;;;;4.53;2.20;;;;;;;6.09;94.56;101206.09;5060527;28;20680;-77
2022/11/27 10:06:40;;;;;;;0.00;0.00;;;;;;;6.22;93.95;101209.16;5073349;28;20246;-76
2022/11/27 10:09:20;;;;;;;0.77;0.77;;;;;;;6.35;93.21;101207.03;5073420;28;20625;-76
2022/11/27 10:11:54;;;;;;;1.73;1.63;;;;;;;6.42;92.73;101204.91;5073366;28;20170;-76
2022/11/27 10:14:28;;;;;;;1.00;1.00;;;;;;;6.50;91.36;101196.22;5073042;28;20179;-76
2022/11/27 10:17:02;;;;;;;6.87;1.50;;;;;;;6.53;91.00;101209.31;5073241;28;20174;-76
2022/11/27 10:19:37;;;;;;;0.80;0.80;;;;;;;6.59;90.44;101204.69;5073397;28;20225;-76
2022/11/27 10:22:17;;;;;;;0.07;0.07;;;;;;;6.62;90.01;101199.53;5073333;28;20255;-76
2022/11/27 10:24:49;;;;;;;0.00;0.00;;;;;;;6.61;90.67;101192.47;5072906;28;20178;-77
2022/11/27 10:27:40;;;;;;;0.00;0.00;;;;;;;6.66;90.09;101183.56;5073139;28;20182;-76
2022/11/27 10:30:17;;;;;;;0.40;0.40;;;;;;;6.64;90.11;101182.97;5073001;28;20185;-77
2022/11/27 10:32:45;;;;;;;0.20;0.20;;;;;;;6.65;89.61;101179.19;5072032;28;20174;-77
2022/11/27 10:35:18;;;;;;;2.70;0.77;;;;;;;6.63;89.73;101165.06;5072827;28;20181;-76
2022/11/27 10:37:54;;;;;;;7.07;1.57;;;;;;;6.67;89.29;101171.63;5072984;28;20265;-76
2022/11/27 10:40:44;;;;;;;0.30;0.30;;;;;;;6.75;88.32;101155.59;5071543;28;20716;-76
2022/11/27 10:43:17;;;;;;;0.00;0.00;;;;;;;6.71;88.38;101148.25;5071935;28;20218;-76
2022/11/27 10:45:48;;;;;;;1.90;1.63;;;;;;;6.76;88.14;101150.97;5072708;28;20539;-76
2022/11/27 10:48:14;;;;;;;1.07;1.07;;;;;;;6.82;87.83;101147.22;5072897;28;20175;-76
2022/11/27 10:50:41;;;;;;;10.97;2.00;;;;;;;6.82;87.37;101152.63;5072690;28;20184;-76
2022/11/27 10:53:14;;;;;;;3.77;3.43;;;;;;;6.82;87.53;101155.34;5072535;28;20182;-76
2022/11/27 10:56:11;;;;;;;0.60;0.60;;;;;;;6.82;87.07;101144.50;5072692;28;20224;-75
2022/11/27 10:58:39;;;;;;;0.10;0.10;;;;;;;6.79;87.76;101132.25;5060648;28;20660;-76
2022/11/27 11:01:07;;;;;;;0.00;0.00;;;;;;;6.79;87.73;101134.13;5067520;28;20183;-76
2022/11/27 11:03:34;;;;;;;1.23;0.73;;;;;;;6.89;87.25;101130.63;5087773;28;20657;-76
2022/11/27 11:06:04;;;;;;;0.37;0.37;;;;;;;6.89;86.70;101128.72;5072474;28;20228;-76
2022/11/27 11:08:35;;;;;;;7.03;2.03;;;;;;;6.94;86.22;101138.78;5087651;28;20273;-76
2022/11/27 11:11:06;;;;;;;0.00;0.00;;;;;;;6.93;87.33;101140.69;5072187;28;20463;-76
2022/11/27 11:13:45;;;;;;;4.20;1.47;;;;;;;6.94;86.90;101130.63;5071922;28;20736;-76
2022/11/27 11:16:11;;;;;;;0.00;0.00;;;;;;;6.93;86.51;101127.09;5072246;28;20570;-76
2022/11/27 11:18:48;;;;;;;1.47;1.40;;;;;;;7.00;86.34;101133.09;5072245;28;20174;-76
2022/11/27 11:21:27;;;;;;;1.77;0.47;;;;;;;7.01;86.27;101136.63;5072050;28;20182;-76
2022/11/27 11:24:02;;;;;;;1.40;1.30;;;;;;;7.07;85.76;101130.91;5087462;28;20695;-76
2022/11/27 11:26:31;;;;;;;0.00;0.00;;;;;;;7.06;84.76;101121.13;5070862;28;20170;-76
2022/11/27 11:29:03;;;;;;;0.30;0.30;;;;;;;7.03;86.19;101129.84;5051889;28;20528;-76
2022/11/27 11:34:24;;;;;;;0.40;0.40;;;;;;;7.18;85.87;101128.22;5069854;28;20211;-81
2022/11/27 11:37:01;;;;;;;0.13;0.13;;;;;;;7.16;83.98;101114.91;5071560;28;20178;-81
2022/11/27 11:39:43;;;;;;;0.00;0.00;;;;;;;7.15;84.24;101110.56;5054003;28;20182;-80